sensor_id;sensor_type;location;lat;lon;timestamp;P1;durP1;ratioP1;P2;durP2;ratioP2
50631;SDS011;49583;45.590;-122.498;2023-04-28T00:00:40;2.30;;;0.90;;
50631;SDS011;49583;45.590;-122.498;2023-04-28T00:02:56;3.40;;;1.00;;
50631;SDS011;49583;45.590;-122.498;2023-04-28T00:05:20;2.40;;;0.80;;
50631;SDS011;49583;45.590;-122.498;2023-04-28T00:07:36;4.20;;;0.90;;
50631;SDS011;49583;45.590;-122.498;2023-04-28T00:09:49;3.70;;;1.00;;
50631;SDS011;49583;45.590;-122.498;2023-04-28T00:12:04;1.40;;;0.80;;
50631;SDS011;49583;45.590;-122.498;2023-04-28T00:14:16;3.20;;;1.00;;
50631;SDS011;49583;45.590;-122.498;2023-04-28T00:16:29;4.30;;;1.00;;
50631;SDS011;49583;45.590;-122.498;2023-04-28T00:19:03;1.60;;;0.80;;
50631;SDS011;49583;45.590;-122.498;2023-04-28T00:21:29;2.20;;;1.00;;
50631;SDS011;49583;45.590;-122.498;2023-04-28T00:23:42;3.30;;;0.80;;
50631;SDS011;49583;45.590;-122.498;2023-04-28T00:25:54;4.70;;;1.00;;
50631;SDS011;49583;45.590;-122.498;2023-04-28T00:28:18;4.20;;;1.00;;
50631;SDS011;49583;45.590;-122.498;2023-04-28T00:30:40;3.90;;;0.80;;
50631;SDS011;49583;45.590;-122.498;2023-04-28T00:32:56;2.90;;;1.00;;
50631;SDS011;49583;45.590;-122.498;2023-04-28T00:35:10;4.60;;;1.20;;
50631;SDS011;49583;45.590;-122.498;2023-04-28T00:37:25;1.80;;;1.00;;
50631;SDS011;49583;45.590;-122.498;2023-04-28T00:39:39;7.00;;;0.80;;
50631;SDS011;49583;45.590;-122.498;2023-04-28T00:41:54;3.70;;;1.00;;
50631;SDS011;49583;45.590;-122.498;2023-04-28T00:44:07;2.20;;;0.90;;
50631;SDS011;49583;45.590;-122.498;2023-04-28T00:46:21;2.80;;;1.00;;
50631;SDS011;49583;45.590;-122.498;2023-04-28T00:48:38;1.40;;;0.80;;
50631;SDS011;49583;45.590;-122.498;2023-04-28T00:50:51;1.70;;;0.70;;
50631;SDS011;49583;45.590;-122.498;2023-04-28T00:53:04;1.50;;;0.70;;
50631;SDS011;49583;45.590;-122.498;2023-04-28T00:55:17;3.30;;;0.80;;
50631;SDS011;49583;45.590;-122.498;2023-04-28T00:57:30;1.10;;;0.60;;
50631;SDS011;49583;45.590;-122.498;2023-04-28T00:59:47;2.50;;;1.20;;
50631;SDS011;49583;45.590;-122.498;2023-04-28T01:02:01;1.90;;;1.00;;
50631;SDS011;49583;45.590;-122.498;2023-04-28T01:04:15;3.40;;;1.10;;
50631;SDS011;49583;45.590;-122.498;2023-04-28T01:06:30;1.80;;;0.90;;
50631;SDS011;49583;45.590;-122.498;2023-04-28T01:08:46;2.70;;;0.80;;
50631;SDS011;49583;45.590;-122.498;2023-04-28T01:11:00;3.60;;;1.10;;
50631;SDS011;49583;45.590;-122.498;2023-04-28T01:13:31;1.40;;;0.90;;
50631;SDS011;49583;45.590;-122.498;2023-04-28T01:15:44;4.50;;;1.10;;
50631;SDS011;49583;45.590;-122.498;2023-04-28T01:17:57;2.40;;;1.00;;
50631;SDS011;49583;45.590;-122.498;2023-04-28T01:20:12;3.90;;;1.10;;
50631;SDS011;49583;45.590;-122.498;2023-04-28T01:22:26;1.60;;;0.80;;
50631;SDS011;49583;45.590;-122.498;2023-04-28T01:24:39;1.80;;;0.70;;
50631;SDS011;49583;45.590;-122.498;2023-04-28T01:26:52;2.30;;;0.80;;
50631;SDS011;49583;45.590;-122.498;2023-04-28T01:29:06;1.50;;;0.90;;
50631;SDS011;49583;45.590;-122.498;2023-04-28T01:31:19;3.20;;;1.40;;
50631;SDS011;49583;45.590;-122.498;2023-04-28T01:33:34;3.60;;;0.80;;
50631;SDS011;49583;45.590;-122.498;2023-04-28T01:35:47;0.90;;;0.60;;
50631;SDS011;49583;45.590;-122.498;2023-04-28T01:38:00;2.10;;;1.00;;
50631;SDS011;49583;45.590;-122.498;2023-04-28T01:40:17;1.30;;;0.70;;
50631;SDS011;49583;45.590;-122.498;2023-04-28T01:42:29;2.80;;;0.70;;
50631;SDS011;49583;45.590;-122.498;2023-04-28T01:44:43;2.70;;;0.60;;
50631;SDS011;49583;45.590;-122.498;2023-04-28T01:46:56;1.90;;;0.80;;
50631;SDS011;49583;45.590;-122.498;2023-04-28T01:49:10;4.70;;;1.00;;
50631;SDS011;49583;45.590;-122.498;2023-04-28T01:51:22;3.00;;;1.20;;
50631;SDS011;49583;45.590;-122.498;2023-04-28T01:53:35;3.80;;;1.00;;
50631;SDS011;49583;45.590;-122.498;2023-04-28T01:55:49;3.20;;;1.10;;
50631;SDS011;49583;45.590;-122.498;2023-04-28T01:58:02;3.50;;;1.40;;
50631;SDS011;49583;45.590;-122.498;2023-04-28T02:00:16;1.90;;;0.90;;
50631;SDS011;49583;45.590;-122.498;2023-04-28T02:02:31;3.50;;;0.70;;
50631;SDS011;49583;45.590;-122.498;2023-04-28T02:04:44;3.60;;;0.80;;
50631;SDS011;49583;45.590;-122.498;2023-04-28T02:06:58;1.90;;;0.80;;
50631;SDS011;49583;45.590;-122.498;2023-04-28T02:09:11;0.70;;;0.40;;
50631;SDS011;49583;45.590;-122.498;2023-04-28T02:11:24;3.70;;;0.80;;
50631;SDS011;49583;45.590;-122.498;2023-04-28T02:13:37;4.50;;;0.60;;
50631;SDS011;49583;45.590;-122.498;2023-04-28T02:15:51;2.60;;;0.70;;
50631;SDS011;49583;45.590;-122.498;2023-04-28T02:18:05;1.10;;;0.50;;
50631;SDS011;49583;45.590;-122.498;2023-04-28T02:20:29;3.20;;;0.70;;
50631;SDS011;49583;45.590;-122.498;2023-04-28T02:22:43;2.30;;;0.60;;
50631;SDS011;49583;45.590;-122.498;2023-04-28T02:24:55;0.60;;;0.40;;
50631;SDS011;49583;45.590;-122.498;2023-04-28T02:27:08;1.00;;;0.50;;
50631;SDS011;49583;45.590;-122.498;2023-04-28T02:29:21;1.80;;;0.60;;
50631;SDS011;49583;45.590;-122.498;2023-04-28T02:31:36;1.20;;;0.60;;
50631;SDS011;49583;45.590;-122.498;2023-04-28T02:33:50;1.90;;;0.60;;
50631;SDS011;49583;45.590;-122.498;2023-04-28T02:36:03;3.80;;;0.60;;
50631;SDS011;49583;45.590;-122.498;2023-04-28T02:38:18;2.90;;;0.50;;
50631;SDS011;49583;45.590;-122.498;2023-04-28T02:40:32;1.70;;;0.60;;
50631;SDS011;49583;45.590;-122.498;2023-04-28T02:42:44;0.60;;;0.50;;
50631;SDS011;49583;45.590;-122.498;2023-04-28T02:44:57;1.30;;;0.40;;
50631;SDS011;49583;45.590;-122.498;2023-04-28T02:47:10;2.00;;;0.70;;
50631;SDS011;49583;45.590;-122.498;2023-04-28T02:49:23;4.30;;;0.50;;
50631;SDS011;49583;45.590;-122.498;2023-04-28T02:51:36;1.30;;;0.60;;
50631;SDS011;49583;45.590;-122.498;2023-04-28T02:53:49;1.60;;;0.50;;
50631;SDS011;49583;45.590;-122.498;2023-04-28T02:56:02;1.70;;;0.90;;
50631;SDS011;49583;45.590;-122.498;2023-04-28T02:58:16;1.20;;;0.50;;
50631;SDS011;49583;45.590;-122.498;2023-04-28T03:00:30;3.80;;;0.80;;
50631;SDS011;49583;45.590;-122.498;2023-04-28T03:02:43;1.80;;;0.50;;
50631;SDS011;49583;45.590;-122.498;2023-04-28T03:04:56;0.80;;;0.40;;
50631;SDS011;49583;45.590;-122.498;2023-04-28T03:07:09;3.30;;;0.70;;
50631;SDS011;49583;45.590;-122.498;2023-04-28T03:09:25;2.20;;;0.90;;
50631;SDS011;49583;45.590;-122.498;2023-04-28T03:11:41;1.80;;;0.60;;
50631;SDS011;49583;45.590;-122.498;2023-04-28T03:13:54;1.30;;;0.80;;
50631;SDS011;49583;45.590;-122.498;2023-04-28T03:16:07;1.10;;;0.70;;
50631;SDS011;49583;45.590;-122.498;2023-04-28T03:18:20;1.40;;;0.60;;
50631;SDS011;49583;45.590;-122.498;2023-04-28T03:20:34;3.00;;;0.60;;
50631;SDS011;49583;45.590;-122.498;2023-04-28T03:22:49;3.00;;;0.80;;
50631;SDS011;49583;45.590;-122.498;2023-04-28T03:25:02;3.00;;;0.90;;
50631;SDS011;49583;45.590;-122.498;2023-04-28T03:27:23;4.20;;;0.70;;
50631;SDS011;49583;45.590;-122.498;2023-04-28T03:29:35;7.00;;;0.60;;
50631;SDS011;49583;45.590;-122.498;2023-04-28T03:31:48;1.10;;;0.70;;
50631;SDS011;49583;45.590;-122.498;2023-04-28T03:34:01;1.90;;;0.60;;
50631;SDS011;49583;45.590;-122.498;2023-04-28T03:36:14;1.70;;;0.70;;
50631;SDS011;49583;45.590;-122.498;2023-04-28T03:38:27;2.80;;;0.80;;
50631;SDS011;49583;45.590;-122.498;2023-04-28T03:40:40;1.80;;;0.50;;
50631;SDS011;49583;45.590;-122.498;2023-04-28T03:42:53;1.90;;;0.60;;
50631;SDS011;49583;45.590;-122.498;2023-04-28T03:45:13;3.00;;;0.70;;
50631;SDS011;49583;45.590;-122.498;2023-04-28T03:47:26;3.10;;;0.70;;
50631;SDS011;49583;45.590;-122.498;2023-04-28T03:49:39;1.50;;;0.60;;
50631;SDS011;49583;45.590;-122.498;2023-04-28T03:51:52;1.80;;;0.50;;
50631;SDS011;49583;45.590;-122.498;2023-04-28T03:54:08;2.10;;;0.60;;
50631;SDS011;49583;45.590;-122.498;2023-04-28T03:56:22;3.80;;;0.70;;
50631;SDS011;49583;45.590;-122.498;2023-04-28T03:58:34;2.90;;;0.90;;
50631;SDS011;49583;45.590;-122.498;2023-04-28T04:00:47;4.20;;;0.80;;
50631;SDS011;49583;45.590;-122.498;2023-04-28T04:03:00;3.10;;;1.10;;
50631;SDS011;49583;45.590;-122.498;2023-04-28T04:05:13;1.70;;;0.50;;
50631;SDS011;49583;45.590;-122.498;2023-04-28T04:07:27;3.60;;;0.90;;
50631;SDS011;49583;45.590;-122.498;2023-04-28T04:09:39;1.70;;;0.70;;
50631;SDS011;49583;45.590;-122.498;2023-04-28T04:11:52;3.40;;;0.60;;
50631;SDS011;49583;45.590;-122.498;2023-04-28T04:14:06;0.90;;;0.70;;
50631;SDS011;49583;45.590;-122.498;2023-04-28T04:16:19;4.80;;;0.70;;
50631;SDS011;49583;45.590;-122.498;2023-04-28T04:18:38;3.70;;;0.70;;
50631;SDS011;49583;45.590;-122.498;2023-04-28T04:21:05;1.00;;;0.70;;
50631;SDS011;49583;45.590;-122.498;2023-04-28T04:23:23;0.90;;;0.60;;
50631;SDS011;49583;45.590;-122.498;2023-04-28T04:25:45;1.90;;;0.90;;
50631;SDS011;49583;45.590;-122.498;2023-04-28T04:27:58;2.40;;;0.70;;
50631;SDS011;49583;45.590;-122.498;2023-04-28T04:30:12;1.60;;;0.60;;
50631;SDS011;49583;45.590;-122.498;2023-04-28T04:32:25;1.40;;;0.60;;
50631;SDS011;49583;45.590;-122.498;2023-04-28T04:34:40;1.70;;;0.90;;
50631;SDS011;49583;45.590;-122.498;2023-04-28T04:36:53;11.90;;;1.70;;
50631;SDS011;49583;45.590;-122.498;2023-04-28T04:39:06;5.20;;;0.90;;
50631;SDS011;49583;45.590;-122.498;2023-04-28T04:41:19;1.70;;;0.70;;
50631;SDS011;49583;45.590;-122.498;2023-04-28T04:43:52;1.70;;;0.70;;
50631;SDS011;49583;45.590;-122.498;2023-04-28T04:46:08;1.10;;;0.70;;
50631;SDS011;49583;45.590;-122.498;2023-04-28T04:48:21;1.70;;;0.90;;
50631;SDS011;49583;45.590;-122.498;2023-04-28T04:50:33;3.10;;;1.10;;
50631;SDS011;49583;45.590;-122.498;2023-04-28T04:52:46;1.90;;;0.70;;
50631;SDS011;49583;45.590;-122.498;2023-04-28T04:55:01;3.80;;;0.80;;
50631;SDS011;49583;45.590;-122.498;2023-04-28T04:57:15;5.20;;;1.00;;
50631;SDS011;49583;45.590;-122.498;2023-04-28T04:59:57;4.40;;;1.10;;
50631;SDS011;49583;45.590;-122.498;2023-04-28T05:02:10;5.90;;;1.20;;
50631;SDS011;49583;45.590;-122.498;2023-04-28T05:04:24;1.00;;;0.70;;
50631;SDS011;49583;45.590;-122.498;2023-04-28T05:06:37;2.40;;;1.30;;
50631;SDS011;49583;45.590;-122.498;2023-04-28T05:08:51;7.10;;;1.20;;
50631;SDS011;49583;45.590;-122.498;2023-04-28T05:11:06;1.20;;;0.80;;
50631;SDS011;49583;45.590;-122.498;2023-04-28T05:13:18;2.90;;;0.90;;
50631;SDS011;49583;45.590;-122.498;2023-04-28T05:15:36;3.10;;;1.40;;
50631;SDS011;49583;45.590;-122.498;2023-04-28T05:18:08;6.50;;;1.10;;
50631;SDS011;49583;45.590;-122.498;2023-04-28T05:20:21;4.40;;;1.00;;
50631;SDS011;49583;45.590;-122.498;2023-04-28T05:22:35;5.50;;;0.90;;
50631;SDS011;49583;45.590;-122.498;2023-04-28T05:24:47;3.10;;;1.20;;
50631;SDS011;49583;45.590;-122.498;2023-04-28T05:27:01;3.00;;;0.90;;
50631;SDS011;49583;45.590;-122.498;2023-04-28T05:29:14;6.40;;;1.30;;
50631;SDS011;49583;45.590;-122.498;2023-04-28T05:31:27;4.60;;;1.50;;
50631;SDS011;49583;45.590;-122.498;2023-04-28T05:33:41;3.80;;;1.20;;
50631;SDS011;49583;45.590;-122.498;2023-04-28T05:35:54;1.80;;;1.10;;
50631;SDS011;49583;45.590;-122.498;2023-04-28T05:38:08;1.90;;;1.00;;
50631;SDS011;49583;45.590;-122.498;2023-04-28T05:40:21;5.90;;;1.00;;
50631;SDS011;49583;45.590;-122.498;2023-04-28T05:42:35;3.10;;;1.20;;
50631;SDS011;49583;45.590;-122.498;2023-04-28T05:44:49;5.00;;;1.40;;
50631;SDS011;49583;45.590;-122.498;2023-04-28T05:47:02;2.60;;;1.10;;
50631;SDS011;49583;45.590;-122.498;2023-04-28T05:49:16;4.70;;;1.00;;
50631;SDS011;49583;45.590;-122.498;2023-04-28T05:51:28;2.60;;;1.30;;
50631;SDS011;49583;45.590;-122.498;2023-04-28T05:53:41;6.60;;;1.90;;
50631;SDS011;49583;45.590;-122.498;2023-04-28T05:55:55;4.40;;;1.10;;
50631;SDS011;49583;45.590;-122.498;2023-04-28T05:58:08;5.10;;;1.20;;
50631;SDS011;49583;45.590;-122.498;2023-04-28T06:00:21;5.20;;;1.10;;
50631;SDS011;49583;45.590;-122.498;2023-04-28T06:02:36;5.80;;;1.10;;
50631;SDS011;49583;45.590;-122.498;2023-04-28T06:04:50;2.60;;;0.80;;
50631;SDS011;49583;45.590;-122.498;2023-04-28T06:07:06;6.30;;;1.60;;
50631;SDS011;49583;45.590;-122.498;2023-04-28T06:09:20;4.50;;;0.90;;
50631;SDS011;49583;45.590;-122.498;2023-04-28T06:11:32;6.10;;;1.00;;
50631;SDS011;49583;45.590;-122.498;2023-04-28T06:13:45;3.50;;;0.90;;
50631;SDS011;49583;45.590;-122.498;2023-04-28T06:15:58;2.00;;;0.80;;
50631;SDS011;49583;45.590;-122.498;2023-04-28T06:18:12;2.90;;;1.10;;
50631;SDS011;49583;45.590;-122.498;2023-04-28T06:20:25;7.70;;;1.30;;
50631;SDS011;49583;45.590;-122.498;2023-04-28T06:22:39;9.90;;;1.40;;
50631;SDS011;49583;45.590;-122.498;2023-04-28T06:24:52;3.40;;;1.50;;
50631;SDS011;49583;45.590;-122.498;2023-04-28T06:27:11;3.90;;;1.70;;
50631;SDS011;49583;45.590;-122.498;2023-04-28T06:29:24;5.30;;;1.50;;
50631;SDS011;49583;45.590;-122.498;2023-04-28T06:31:37;3.30;;;1.40;;
50631;SDS011;49583;45.590;-122.498;2023-04-28T06:33:50;3.60;;;1.10;;
50631;SDS011;49583;45.590;-122.498;2023-04-28T06:36:03;8.00;;;1.60;;
50631;SDS011;49583;45.590;-122.498;2023-04-28T06:38:20;2.60;;;1.40;;
50631;SDS011;49583;45.590;-122.498;2023-04-28T06:40:33;5.50;;;1.80;;
50631;SDS011;49583;45.590;-122.498;2023-04-28T06:42:47;5.30;;;2.20;;
50631;SDS011;49583;45.590;-122.498;2023-04-28T06:45:11;3.30;;;1.60;;
50631;SDS011;49583;45.590;-122.498;2023-04-28T06:47:23;2.20;;;1.30;;
50631;SDS011;49583;45.590;-122.498;2023-04-28T06:49:37;3.40;;;1.50;;
50631;SDS011;49583;45.590;-122.498;2023-04-28T06:51:51;5.60;;;1.70;;
50631;SDS011;49583;45.590;-122.498;2023-04-28T06:54:08;5.90;;;1.60;;
50631;SDS011;49583;45.590;-122.498;2023-04-28T06:56:22;3.00;;;1.50;;
50631;SDS011;49583;45.590;-122.498;2023-04-28T06:58:38;2.60;;;1.10;;
50631;SDS011;49583;45.590;-122.498;2023-04-28T07:00:51;4.00;;;1.20;;
50631;SDS011;49583;45.590;-122.498;2023-04-28T07:03:04;4.50;;;1.20;;
50631;SDS011;49583;45.590;-122.498;2023-04-28T07:05:17;4.80;;;1.30;;
50631;SDS011;49583;45.590;-122.498;2023-04-28T07:07:30;6.90;;;1.30;;
50631;SDS011;49583;45.590;-122.498;2023-04-28T07:09:42;4.60;;;1.50;;
50631;SDS011;49583;45.590;-122.498;2023-04-28T07:11:55;2.90;;;1.40;;
50631;SDS011;49583;45.590;-122.498;2023-04-28T07:14:08;8.30;;;1.20;;
50631;SDS011;49583;45.590;-122.498;2023-04-28T07:16:21;1.60;;;1.00;;
50631;SDS011;49583;45.590;-122.498;2023-04-28T07:18:33;3.70;;;1.10;;
50631;SDS011;49583;45.590;-122.498;2023-04-28T07:20:46;3.60;;;1.10;;
50631;SDS011;49583;45.590;-122.498;2023-04-28T07:23:00;4.70;;;1.20;;
50631;SDS011;49583;45.590;-122.498;2023-04-28T07:25:13;4.40;;;1.10;;
50631;SDS011;49583;45.590;-122.498;2023-04-28T07:27:39;3.50;;;1.20;;
50631;SDS011;49583;45.590;-122.498;2023-04-28T07:29:52;4.30;;;1.30;;
50631;SDS011;49583;45.590;-122.498;2023-04-28T07:32:04;5.90;;;1.00;;
50631;SDS011;49583;45.590;-122.498;2023-04-28T07:34:18;3.60;;;0.90;;
50631;SDS011;49583;45.590;-122.498;2023-04-28T07:36:31;3.20;;;1.00;;
50631;SDS011;49583;45.590;-122.498;2023-04-28T07:38:53;4.00;;;1.30;;
50631;SDS011;49583;45.590;-122.498;2023-04-28T07:41:06;3.50;;;1.10;;
50631;SDS011;49583;45.590;-122.498;2023-04-28T07:43:19;3.60;;;0.90;;
50631;SDS011;49583;45.590;-122.498;2023-04-28T07:45:31;2.30;;;0.70;;
50631;SDS011;49583;45.590;-122.498;2023-04-28T07:47:45;3.10;;;1.00;;
50631;SDS011;49583;45.590;-122.498;2023-04-28T07:49:58;3.50;;;1.20;;
50631;SDS011;49583;45.590;-122.498;2023-04-28T07:52:12;3.40;;;1.20;;
50631;SDS011;49583;45.590;-122.498;2023-04-28T07:54:26;2.10;;;0.80;;
50631;SDS011;49583;45.590;-122.498;2023-04-28T07:56:41;3.10;;;0.80;;
50631;SDS011;49583;45.590;-122.498;2023-04-28T07:58:55;11.50;;;1.30;;
50631;SDS011;49583;45.590;-122.498;2023-04-28T08:01:08;3.70;;;1.20;;
50631;SDS011;49583;45.590;-122.498;2023-04-28T08:03:20;3.30;;;0.90;;
50631;SDS011;49583;45.590;-122.498;2023-04-28T08:05:33;4.30;;;1.60;;
50631;SDS011;49583;45.590;-122.498;2023-04-28T08:07:47;4.80;;;1.50;;
50631;SDS011;49583;45.590;-122.498;2023-04-28T08:09:59;4.50;;;1.20;;
50631;SDS011;49583;45.590;-122.498;2023-04-28T08:12:12;3.20;;;1.20;;
50631;SDS011;49583;45.590;-122.498;2023-04-28T08:14:25;1.80;;;1.30;;
50631;SDS011;49583;45.590;-122.498;2023-04-28T08:16:38;3.80;;;1.00;;
50631;SDS011;49583;45.590;-122.498;2023-04-28T08:18:52;4.10;;;1.30;;
50631;SDS011;49583;45.590;-122.498;2023-04-28T08:21:05;2.40;;;1.20;;
50631;SDS011;49583;45.590;-122.498;2023-04-28T08:23:19;2.50;;;0.90;;
50631;SDS011;49583;45.590;-122.498;2023-04-28T08:25:35;2.40;;;1.30;;
50631;SDS011;49583;45.590;-122.498;2023-04-28T08:27:48;4.10;;;1.20;;
50631;SDS011;49583;45.590;-122.498;2023-04-28T08:30:12;2.40;;;1.20;;
50631;SDS011;49583;45.590;-122.498;2023-04-28T08:32:26;4.30;;;1.30;;
50631;SDS011;49583;45.590;-122.498;2023-04-28T08:34:39;2.20;;;1.30;;
50631;SDS011;49583;45.590;-122.498;2023-04-28T08:36:52;2.40;;;1.40;;
50631;SDS011;49583;45.590;-122.498;2023-04-28T08:39:05;9.30;;;1.40;;
50631;SDS011;49583;45.590;-122.498;2023-04-28T08:41:19;4.20;;;1.30;;
50631;SDS011;49583;45.590;-122.498;2023-04-28T08:43:33;1.50;;;1.20;;
50631;SDS011;49583;45.590;-122.498;2023-04-28T08:45:47;6.30;;;1.60;;
50631;SDS011;49583;45.590;-122.498;2023-04-28T08:48:05;2.60;;;1.30;;
50631;SDS011;49583;45.590;-122.498;2023-04-28T08:50:27;2.30;;;1.10;;
50631;SDS011;49583;45.590;-122.498;2023-04-28T08:52:43;3.20;;;1.30;;
50631;SDS011;49583;45.590;-122.498;2023-04-28T08:54:56;4.90;;;1.10;;
50631;SDS011;49583;45.590;-122.498;2023-04-28T08:57:10;4.90;;;1.70;;
50631;SDS011;49583;45.590;-122.498;2023-04-28T08:59:23;6.80;;;1.40;;
50631;SDS011;49583;45.590;-122.498;2023-04-28T09:01:36;4.70;;;1.90;;
50631;SDS011;49583;45.590;-122.498;2023-04-28T09:03:49;2.80;;;1.30;;
50631;SDS011;49583;45.590;-122.498;2023-04-28T09:06:03;4.90;;;1.30;;
50631;SDS011;49583;45.590;-122.498;2023-04-28T09:08:15;4.80;;;1.10;;
50631;SDS011;49583;45.590;-122.498;2023-04-28T09:10:28;4.60;;;1.20;;
50631;SDS011;49583;45.590;-122.498;2023-04-28T09:12:41;3.60;;;1.00;;
50631;SDS011;49583;45.590;-122.498;2023-04-28T09:14:55;3.90;;;1.00;;
50631;SDS011;49583;45.590;-122.498;2023-04-28T09:17:15;2.90;;;1.30;;
50631;SDS011;49583;45.590;-122.498;2023-04-28T09:19:33;4.30;;;0.90;;
50631;SDS011;49583;45.590;-122.498;2023-04-28T09:21:50;4.70;;;1.10;;
50631;SDS011;49583;45.590;-122.498;2023-04-28T09:24:05;3.30;;;0.90;;
50631;SDS011;49583;45.590;-122.498;2023-04-28T09:26:18;2.20;;;0.70;;
50631;SDS011;49583;45.590;-122.498;2023-04-28T09:28:32;3.80;;;0.90;;
50631;SDS011;49583;45.590;-122.498;2023-04-28T09:30:45;1.60;;;0.80;;
50631;SDS011;49583;45.590;-122.498;2023-04-28T09:33:05;2.20;;;1.30;;
50631;SDS011;49583;45.590;-122.498;2023-04-28T09:35:17;7.90;;;1.40;;
50631;SDS011;49583;45.590;-122.498;2023-04-28T09:37:58;2.60;;;1.10;;
50631;SDS011;49583;45.590;-122.498;2023-04-28T09:40:12;4.40;;;0.80;;
50631;SDS011;49583;45.590;-122.498;2023-04-28T09:42:38;1.40;;;1.20;;
50631;SDS011;49583;45.590;-122.498;2023-04-28T09:44:53;2.90;;;1.00;;
50631;SDS011;49583;45.590;-122.498;2023-04-28T09:47:18;2.20;;;0.90;;
50631;SDS011;49583;45.590;-122.498;2023-04-28T09:49:32;5.20;;;0.90;;
50631;SDS011;49583;45.590;-122.498;2023-04-28T09:54:30;5.00;;;1.00;;
50631;SDS011;49583;45.590;-122.498;2023-04-28T09:56:45;2.30;;;0.90;;
50631;SDS011;49583;45.590;-122.498;2023-04-28T09:58:59;3.00;;;0.80;;
50631;SDS011;49583;45.590;-122.498;2023-04-28T10:04:16;7.00;;;1.10;;
50631;SDS011;49583;45.590;-122.498;2023-04-28T10:06:30;5.10;;;1.10;;
50631;SDS011;49583;45.590;-122.498;2023-04-28T10:08:45;2.70;;;1.00;;
50631;SDS011;49583;45.590;-122.498;2023-04-28T10:10:59;4.80;;;0.80;;
50631;SDS011;49583;45.590;-122.498;2023-04-28T10:13:13;2.60;;;1.10;;
50631;SDS011;49583;45.590;-122.498;2023-04-28T10:15:26;4.70;;;1.00;;
50631;SDS011;49583;45.590;-122.498;2023-04-28T10:17:39;9.00;;;1.00;;
50631;SDS011;49583;45.590;-122.498;2023-04-28T10:19:52;3.20;;;1.20;;
50631;SDS011;49583;45.590;-122.498;2023-04-28T10:22:10;1.90;;;1.10;;
50631;SDS011;49583;45.590;-122.498;2023-04-28T10:24:33;5.80;;;1.30;;
50631;SDS011;49583;45.590;-122.498;2023-04-28T10:27:06;4.70;;;1.40;;
50631;SDS011;49583;45.590;-122.498;2023-04-28T10:29:24;4.30;;;1.20;;
50631;SDS011;49583;45.590;-122.498;2023-04-28T10:31:41;4.80;;;1.50;;
50631;SDS011;49583;45.590;-122.498;2023-04-28T10:34:27;4.80;;;1.70;;
50631;SDS011;49583;45.590;-122.498;2023-04-28T10:36:51;7.00;;;1.00;;
50631;SDS011;49583;45.590;-122.498;2023-04-28T10:39:10;3.60;;;0.90;;
50631;SDS011;49583;45.590;-122.498;2023-04-28T10:41:32;5.40;;;1.00;;
50631;SDS011;49583;45.590;-122.498;2023-04-28T10:43:45;2.00;;;0.90;;
50631;SDS011;49583;45.590;-122.498;2023-04-28T10:46:01;4.00;;;0.70;;
50631;SDS011;49583;45.590;-122.498;2023-04-28T10:48:17;3.00;;;1.20;;
50631;SDS011;49583;45.590;-122.498;2023-04-28T10:50:30;4.10;;;1.00;;
50631;SDS011;49583;45.590;-122.498;2023-04-28T10:52:51;3.50;;;1.20;;
50631;SDS011;49583;45.590;-122.498;2023-04-28T10:57:39;6.40;;;1.00;;
50631;SDS011;49583;45.590;-122.498;2023-04-28T10:59:54;4.70;;;1.10;;
50631;SDS011;49583;45.590;-122.498;2023-04-28T11:02:39;2.70;;;0.80;;
50631;SDS011;49583;45.590;-122.498;2023-04-28T11:05:12;2.20;;;0.70;;
50631;SDS011;49583;45.590;-122.498;2023-04-28T11:07:27;4.10;;;1.30;;
50631;SDS011;49583;45.590;-122.498;2023-04-28T11:09:49;3.20;;;1.00;;
50631;SDS011;49583;45.590;-122.498;2023-04-28T11:12:06;1.30;;;0.80;;
50631;SDS011;49583;45.590;-122.498;2023-04-28T11:14:34;4.20;;;0.90;;
50631;SDS011;49583;45.590;-122.498;2023-04-28T11:16:49;1.80;;;1.00;;
50631;SDS011;49583;45.590;-122.498;2023-04-28T11:19:02;3.40;;;0.90;;
50631;SDS011;49583;45.590;-122.498;2023-04-28T11:21:17;4.20;;;0.90;;
50631;SDS011;49583;45.590;-122.498;2023-04-28T11:23:30;3.00;;;1.50;;
50631;SDS011;49583;45.590;-122.498;2023-04-28T11:28:14;4.10;;;1.00;;
50631;SDS011;49583;45.590;-122.498;2023-04-28T11:30:28;7.10;;;1.50;;
50631;SDS011;49583;45.590;-122.498;2023-04-28T11:32:41;2.80;;;0.90;;
50631;SDS011;49583;45.590;-122.498;2023-04-28T11:34:54;1.50;;;1.00;;
50631;SDS011;49583;45.590;-122.498;2023-04-28T11:37:06;7.10;;;1.00;;
50631;SDS011;49583;45.590;-122.498;2023-04-28T11:39:28;2.80;;;1.10;;
50631;SDS011;49583;45.590;-122.498;2023-04-28T11:41:41;3.20;;;1.10;;
50631;SDS011;49583;45.590;-122.498;2023-04-28T11:43:54;13.40;;;1.30;;
50631;SDS011;49583;45.590;-122.498;2023-04-28T11:46:07;2.00;;;0.90;;
50631;SDS011;49583;45.590;-122.498;2023-04-28T11:48:24;4.80;;;0.90;;
50631;SDS011;49583;45.590;-122.498;2023-04-28T11:50:37;4.70;;;1.00;;
50631;SDS011;49583;45.590;-122.498;2023-04-28T11:52:51;5.80;;;0.80;;
50631;SDS011;49583;45.590;-122.498;2023-04-28T11:55:05;3.30;;;0.90;;
50631;SDS011;49583;45.590;-122.498;2023-04-28T11:57:24;1.40;;;1.20;;
50631;SDS011;49583;45.590;-122.498;2023-04-28T11:59:37;4.50;;;1.20;;
50631;SDS011;49583;45.590;-122.498;2023-04-28T12:01:50;2.90;;;1.00;;
50631;SDS011;49583;45.590;-122.498;2023-04-28T12:04:06;2.10;;;1.10;;
50631;SDS011;49583;45.590;-122.498;2023-04-28T12:06:19;2.30;;;1.30;;
50631;SDS011;49583;45.590;-122.498;2023-04-28T12:08:32;3.40;;;1.40;;
50631;SDS011;49583;45.590;-122.498;2023-04-28T12:10:52;3.00;;;1.50;;
50631;SDS011;49583;45.590;-122.498;2023-04-28T12:13:25;2.10;;;1.30;;
50631;SDS011;49583;45.590;-122.498;2023-04-28T12:15:40;7.30;;;1.70;;
50631;SDS011;49583;45.590;-122.498;2023-04-28T12:17:53;2.40;;;1.40;;
50631;SDS011;49583;45.590;-122.498;2023-04-28T12:22:46;4.40;;;1.60;;
50631;SDS011;49583;45.590;-122.498;2023-04-28T12:25:06;6.20;;;1.80;;
50631;SDS011;49583;45.590;-122.498;2023-04-28T12:27:20;7.30;;;2.00;;
50631;SDS011;49583;45.590;-122.498;2023-04-28T12:29:36;3.50;;;1.80;;
50631;SDS011;49583;45.590;-122.498;2023-04-28T12:31:51;4.80;;;1.40;;
50631;SDS011;49583;45.590;-122.498;2023-04-28T12:34:04;3.80;;;1.50;;
50631;SDS011;49583;45.590;-122.498;2023-04-28T12:36:16;3.20;;;1.20;;
50631;SDS011;49583;45.590;-122.498;2023-04-28T12:38:29;5.10;;;1.80;;
50631;SDS011;49583;45.590;-122.498;2023-04-28T12:40:42;3.70;;;1.50;;
50631;SDS011;49583;45.590;-122.498;2023-04-28T12:42:54;6.50;;;1.70;;
50631;SDS011;49583;45.590;-122.498;2023-04-28T12:45:08;3.00;;;1.20;;
50631;SDS011;49583;45.590;-122.498;2023-04-28T12:47:20;3.00;;;1.20;;
50631;SDS011;49583;45.590;-122.498;2023-04-28T12:49:33;5.30;;;1.60;;
50631;SDS011;49583;45.590;-122.498;2023-04-28T12:51:46;7.30;;;1.20;;
50631;SDS011;49583;45.590;-122.498;2023-04-28T12:53:58;2.00;;;1.30;;
50631;SDS011;49583;45.590;-122.498;2023-04-28T12:56:11;3.40;;;1.00;;
50631;SDS011;49583;45.590;-122.498;2023-04-28T12:58:28;2.00;;;0.90;;
50631;SDS011;49583;45.590;-122.498;2023-04-28T13:00:41;2.90;;;0.80;;
50631;SDS011;49583;45.590;-122.498;2023-04-28T13:02:54;1.70;;;0.90;;
50631;SDS011;49583;45.590;-122.498;2023-04-28T13:05:07;4.20;;;1.00;;
50631;SDS011;49583;45.590;-122.498;2023-04-28T13:07:21;4.40;;;1.10;;
50631;SDS011;49583;45.590;-122.498;2023-04-28T13:09:33;5.60;;;0.80;;
50631;SDS011;49583;45.590;-122.498;2023-04-28T13:11:46;1.50;;;0.90;;